createdAt,value
2022-11-27T00:01:20.915Z,10.37
2022-11-27T00:03:49.143Z,12.23
2022-11-27T00:06:19.330Z,11.47
2022-11-27T00:08:49.507Z,12.47
2022-11-27T00:11:19.440Z,13.20
2022-11-27T00:13:47.996Z,13.27
2022-11-27T00:16:16.262Z,11.03
2022-11-27T00:18:44.441Z,11.03
2022-11-27T00:21:14.165Z,13.03
2022-11-27T00:23:42.680Z,11.17
2022-11-27T00:26:12.355Z,12.67
2022-11-27T00:28:40.624Z,11.43
2022-11-27T00:31:13.463Z,13.83
2022-11-27T00:33:41.736Z,14.10
2022-11-27T00:36:11.039Z,12.33
2022-11-27T00:38:39.476Z,12.87
2022-11-27T00:41:08.685Z,10.53
2022-11-27T00:43:44.399Z,13.13
2022-11-27T00:46:13.602Z,13.03
2022-11-27T00:48:41.667Z,9.37
2022-11-27T00:51:11.716Z,12.40
2022-11-27T00:53:39.755Z,11.37
2022-11-27T00:56:08.180Z,11.60
2022-11-27T00:58:37.444Z,11.20
2022-11-27T01:01:07.429Z,11.43
2022-11-27T01:03:36.528Z,12.40
2022-11-27T01:06:06.587Z,11.23
2022-11-27T01:08:35.176Z,12.80
2022-11-27T01:11:03.505Z,10.67
2022-11-27T01:13:34.233Z,13.00
2022-11-27T01:16:06.801Z,12.37
2022-11-27T01:18:35.449Z,10.90
2022-11-27T01:21:04.545Z,11.60
2022-11-27T01:23:32.937Z,11.80
2022-11-27T01:26:01.519Z,12.70
2022-11-27T01:28:30.033Z,13.63
2022-11-27T01:30:58.163Z,11.80
2022-11-27T01:33:27.327Z,12.03
2022-11-27T01:35:56.719Z,10.83
2022-11-27T01:38:25.200Z,13.07
2022-11-27T01:40:58.302Z,13.47
2022-11-27T01:43:42.100Z,10.30
2022-11-27T01:46:30.135Z,11.77
2022-11-27T01:49:06.600Z,16.17
2022-11-27T01:51:34.606Z,13.40
2022-11-27T01:54:02.389Z,12.03
2022-11-27T01:56:31.239Z,12.27
2022-11-27T01:59:01.062Z,12.10
2022-11-27T02:01:29.046Z,12.97
2022-11-27T02:04:02.231Z,12.07
2022-11-27T02:06:30.612Z,14.23
2022-11-27T02:08:58.826Z,13.37
2022-11-27T02:11:37.404Z,14.27
2022-11-27T02:14:16.383Z,12.87
2022-11-27T02:16:52.467Z,14.13
2022-11-27T02:19:34.387Z,14.13
2022-11-27T02:22:09.482Z,13.53
2022-11-27T02:24:50.595Z,16.07
2022-11-27T02:27:38.487Z,15.90
2022-11-27T02:30:09.047Z,14.13
2022-11-27T02:32:40.867Z,14.53
2022-11-27T02:35:15.744Z,17.00
2022-11-27T02:37:48.808Z,14.03
2022-11-27T02:40:26.068Z,14.23
2022-11-27T02:42:59.167Z,17.10
2022-11-27T02:45:34.013Z,15.13
2022-11-27T02:48:02.088Z,16.23
2022-11-27T02:50:33.224Z,13.10
2022-11-27T02:53:05.120Z,14.00
2022-11-27T02:55:35.868Z,12.97
2022-11-27T02:58:08.415Z,12.17
2022-11-27T03:00:39.700Z,14.10
2022-11-27T03:03:11.924Z,12.77
2022-11-27T03:05:43.351Z,12.90
2022-11-27T03:08:19.596Z,13.67
2022-11-27T03:10:51.982Z,10.83
2022-11-27T03:13:20.384Z,11.53
2022-11-27T03:16:01.380Z,10.13
2022-11-27T03:18:38.431Z,11.10
2022-11-27T03:21:23.367Z,11.40
2022-11-27T03:23:51.585Z,9.37
2022-11-27T03:26:19.523Z,7.97
2022-11-27T03:28:48.245Z,9.23
2022-11-27T03:31:17.961Z,9.03
2022-11-27T03:33:46.149Z,9.50
2022-11-27T03:36:16.197Z,7.30
2022-11-27T03:38:46.640Z,7.80
2022-11-27T03:41:22.770Z,7.57
2022-11-27T03:44:01.403Z,7.27
2022-11-27T03:46:41.112Z,5.27
2022-11-27T03:49:19.605Z,6.17
2022-11-27T03:51:54.516Z,6.97
2022-11-27T03:54:31.679Z,6.67
2022-11-27T03:57:07.860Z,7.07
2022-11-27T03:59:40.747Z,6.17
2022-11-27T04:02:14.646Z,5.50
2022-11-27T04:04:42.965Z,5.67
2022-11-27T04:07:16.961Z,5.13
2022-11-27T04:09:45.058Z,4.73
2022-11-27T04:12:12.867Z,5.40
2022-11-27T04:14:40.873Z,4.63
2022-11-27T04:17:09.575Z,4.37
2022-11-27T04:19:38.765Z,4.27
2022-11-27T04:22:06.593Z,3.87
2022-11-27T04:24:34.570Z,4.40
2022-11-27T04:27:02.354Z,3.90
2022-11-27T04:29:30.157Z,4.47
2022-11-27T04:31:58.657Z,4.00
2022-11-27T04:34:26.564Z,3.43
2022-11-27T04:36:55.743Z,4.93
2022-11-27T04:39:23.938Z,5.20
2022-11-27T04:41:51.735Z,3.80
2022-11-27T04:44:19.609Z,4.00
2022-11-27T04:46:47.786Z,4.53
2022-11-27T04:49:15.627Z,4.90
2022-11-27T04:51:43.446Z,4.37
2022-11-27T04:54:13.123Z,4.80
2022-11-27T04:56:40.931Z,4.37
2022-11-27T04:59:08.720Z,4.37
2022-11-27T05:01:37.221Z,4.90
2022-11-27T05:04:05.350Z,5.10
2022-11-27T05:06:33.156Z,5.07
2022-11-27T05:09:02.335Z,4.67
2022-11-27T05:11:35.306Z,5.47
2022-11-27T05:14:20.255Z,4.20
2022-11-27T05:16:50.320Z,4.73
2022-11-27T05:19:20.520Z,4.67
2022-11-27T05:21:49.141Z,6.40
2022-11-27T05:24:18.011Z,4.30
2022-11-27T05:26:47.919Z,3.97
2022-11-27T05:29:16.476Z,4.73
2022-11-27T05:31:44.613Z,4.83
2022-11-27T05:34:12.698Z,4.93
2022-11-27T05:36:41.197Z,4.27
2022-11-27T05:39:09.903Z,4.77
2022-11-27T05:41:39.127Z,4.97
2022-11-27T05:44:08.692Z,4.57
2022-11-27T05:46:36.569Z,4.83
2022-11-27T05:49:06.278Z,5.07
2022-11-27T05:51:34.495Z,6.77
2022-11-27T05:54:02.308Z,6.17
2022-11-27T05:56:30.133Z,5.93
2022-11-27T05:58:58.237Z,6.43
2022-11-27T06:01:27.462Z,5.40
2022-11-27T06:03:55.311Z,4.47
2022-11-27T06:06:23.304Z,5.00
2022-11-27T06:08:51.111Z,5.07
2022-11-27T06:11:21.679Z,6.27
2022-11-27T06:13:50.618Z,5.07
2022-11-27T06:16:22.441Z,5.30
2022-11-27T06:18:53.195Z,5.23
2022-11-27T06:21:21.895Z,5.53
2022-11-27T06:23:50.284Z,3.87
2022-11-27T06:26:19.656Z,4.57
2022-11-27T06:28:48.793Z,4.33
2022-11-27T06:31:18.726Z,5.03
2022-11-27T06:33:46.949Z,5.30
2022-11-27T06:36:16.876Z,5.20
2022-11-27T06:38:45.405Z,5.47
2022-11-27T06:41:15.404Z,6.60
2022-11-27T06:43:43.628Z,5.47
2022-11-27T06:46:15.468Z,5.77
2022-11-27T06:48:43.781Z,6.63
2022-11-27T06:51:14.180Z,5.60
2022-11-27T06:53:44.463Z,5.03
2022-11-27T06:56:14.205Z,4.73
2022-11-27T06:58:43.126Z,6.50
2022-11-27T07:01:13.479Z,5.23
2022-11-27T07:03:41.734Z,6.10
2022-11-27T07:06:13.011Z,6.03
2022-11-27T07:08:41.124Z,5.37
2022-11-27T07:11:13.549Z,6.70
2022-11-27T07:13:41.821Z,5.50
2022-11-27T07:16:12.913Z,7.63
2022-11-27T07:18:42.588Z,6.33
2022-11-27T07:21:11.355Z,6.50
2022-11-27T07:23:40.004Z,8.07
2022-11-27T07:26:08.996Z,6.70
2022-11-27T07:28:38.342Z,6.60
2022-11-27T07:31:06.560Z,7.37
2022-11-27T07:33:34.416Z,6.37
2022-11-27T07:36:04.156Z,7.63
2022-11-27T07:38:32.248Z,8.23
2022-11-27T07:41:01.580Z,8.77
2022-11-27T07:43:29.665Z,8.57
2022-11-27T07:45:59.391Z,10.43
2022-11-27T07:48:27.332Z,8.37
2022-11-27T07:50:55.251Z,9.30
2022-11-27T07:53:23.163Z,10.07
2022-11-27T07:55:53.286Z,9.07
2022-11-27T07:58:21.435Z,9.23
2022-11-27T08:00:49.396Z,9.27
2022-11-27T08:03:18.553Z,8.03
2022-11-27T08:05:46.579Z,8.57
2022-11-27T08:08:14.515Z,10.50
2022-11-27T08:10:42.640Z,8.37
2022-11-27T08:13:10.696Z,9.13
2022-11-27T08:15:38.913Z,9.80
2022-11-27T08:18:06.783Z,10.17
2022-11-27T08:20:36.097Z,8.93
2022-11-27T08:23:04.008Z,10.10
2022-11-27T08:25:31.909Z,8.83
2022-11-27T08:27:59.776Z,10.30
2022-11-27T08:30:27.741Z,9.37
2022-11-27T08:32:55.575Z,9.53
2022-11-27T08:35:23.724Z,8.10
2022-11-27T08:37:53.206Z,9.23
2022-11-27T08:40:21.228Z,10.07
2022-11-27T08:42:49.191Z,8.83
2022-11-27T08:45:17.324Z,11.37
2022-11-27T08:47:45.189Z,9.00
2022-11-27T08:50:13.111Z,8.53
2022-11-27T08:52:40.956Z,10.40
2022-11-27T08:55:10.886Z,10.13
2022-11-27T08:57:39.202Z,9.63
2022-11-27T09:00:08.969Z,10.40
2022-11-27T09:02:36.863Z,9.83
2022-11-27T09:05:07.208Z,11.87
2022-11-27T09:07:35.181Z,10.60
2022-11-27T09:10:03.035Z,10.30
2022-11-27T09:12:32.405Z,8.53
2022-11-27T09:15:00.260Z,7.90
2022-11-27T09:17:28.512Z,8.43
2022-11-27T09:19:56.433Z,8.20
2022-11-27T09:22:24.340Z,9.07
2022-11-27T09:24:52.134Z,7.83
2022-11-27T09:27:20.045Z,7.37
2022-11-27T09:29:49.748Z,9.40
2022-11-27T09:32:17.846Z,7.40
2022-11-27T09:34:45.876Z,8.93
2022-11-27T09:37:13.865Z,7.57
2022-11-27T09:39:41.747Z,9.82
2022-11-27T09:42:18.576Z,6.70
2022-11-27T09:44:54.139Z,8.03
2022-11-27T09:47:29.592Z,8.17
2022-11-27T09:50:01.733Z,8.40
2022-11-27T09:52:39.585Z,7.97
2022-11-27T09:55:15.118Z,9.40
2022-11-27T09:57:47.614Z,10.53
2022-11-27T10:00:19.555Z,7.67
2022-11-27T10:02:48.167Z,8.83
2022-11-27T10:05:22.244Z,11.73
2022-11-27T10:08:06.937Z,6.97
2022-11-27T10:10:41.961Z,10.43
2022-11-27T10:13:22.733Z,8.00
2022-11-27T10:15:58.112Z,9.23
2022-11-27T10:18:36.820Z,9.07
2022-11-27T10:21:11.182Z,8.77
2022-11-27T10:23:45.281Z,7.70
2022-11-27T10:26:18.880Z,9.23
2022-11-27T10:28:55.721Z,8.70
2022-11-27T10:31:34.309Z,8.53
2022-11-27T10:34:05.299Z,9.93
2022-11-27T10:36:38.023Z,8.70
2022-11-27T10:39:13.318Z,9.87
2022-11-27T10:41:49.686Z,10.77
2022-11-27T10:44:31.515Z,9.20
2022-11-27T10:47:05.332Z,10.03
2022-11-27T10:49:35.072Z,9.33
2022-11-27T10:52:02.867Z,11.10
2022-11-27T10:54:35.470Z,9.53
2022-11-27T10:57:28.292Z,9.47
2022-11-27T11:00:06.496Z,9.23
2022-11-27T11:02:38.483Z,9.20
2022-11-27T11:05:57.257Z,8.87
2022-11-27T11:08:18.890Z,10.23
2022-11-27T11:10:52.963Z,8.98
2022-11-27T11:13:22.991Z,8.33
2022-11-27T11:16:00.267Z,10.20
2022-11-27T11:18:32.795Z,8.07
2022-11-27T11:21:03.251Z,9.50
2022-11-27T11:23:35.137Z,10.43
2022-11-27T11:26:06.874Z,9.50
2022-11-27T11:28:42.365Z,10.10
2022-11-27T11:31:19.462Z,10.93
2022-11-27T11:33:55.618Z,9.87
2022-11-27T11:36:23.902Z,10.57
2022-11-27T11:38:53.293Z,12.87
2022-11-27T11:41:21.815Z,13.30
2022-11-27T11:43:58.640Z,11.60
2022-11-27T11:46:28.708Z,11.40
2022-11-27T11:49:01.686Z,12.50
2022-11-27T11:51:58.653Z,11.50
2022-11-27T11:54:46.439Z,11.40
2022-11-27T11:57:33.517Z,12.47
2022-11-27T12:00:07.328Z,11.87
2022-11-27T12:02:46.739Z,10.20
2022-11-27T12:05:28.251Z,12.43
2022-11-27T12:08:14.691Z,12.30
2022-11-27T12:10:54.781Z,13.43
2022-11-27T12:13:34.197Z,10.67
2022-11-27T12:16:10.389Z,14.32
2022-11-27T12:18:48.233Z,15.20
2022-11-27T12:21:22.788Z,15.37
2022-11-27T12:24:14.867Z,12.03
2022-11-27T12:26:57.924Z,12.93
2022-11-27T12:29:39.417Z,13.73
2022-11-27T12:32:32.364Z,14.07
2022-11-27T12:35:17.272Z,17.37
2022-11-27T12:37:53.938Z,14.10
2022-11-27T12:40:34.497Z,11.83
2022-11-27T12:43:14.729Z,14.20
2022-11-27T12:45:46.223Z,13.30
2022-11-27T12:48:19.330Z,12.23
2022-11-27T12:50:52.709Z,12.40
2022-11-27T12:53:29.954Z,13.20
2022-11-27T12:56:04.616Z,12.27
2022-11-27T12:58:37.535Z,12.53
2022-11-27T13:01:10.980Z,12.57
2022-11-27T13:03:49.181Z,13.97
2022-11-27T13:06:21.197Z,11.43
2022-11-27T13:08:58.224Z,12.07
2022-11-27T13:11:30.513Z,13.10
2022-11-27T13:14:04.475Z,12.33
2022-11-27T13:16:36.764Z,13.00
2022-11-27T13:19:13.752Z,13.17
2022-11-27T13:21:43.437Z,9.77
2022-11-27T13:24:14.527Z,12.23
2022-11-27T13:26:47.352Z,9.03
2022-11-27T13:29:22.005Z,10.57
2022-11-27T13:31:57.010Z,9.47
2022-11-27T13:34:28.944Z,11.47
2022-11-27T13:36:59.580Z,11.93
2022-11-27T13:39:32.352Z,11.70
2022-11-27T13:42:08.779Z,11.33
2022-11-27T13:44:41.370Z,12.27
2022-11-27T13:47:14.050Z,12.30
2022-11-27T13:49:43.536Z,12.43
2022-11-27T13:52:14.727Z,12.50
2022-11-27T13:54:56.013Z,12.23
2022-11-27T13:57:24.693Z,10.80
2022-11-27T14:00:01.544Z,13.90
2022-11-27T14:02:41.760Z,16.20
2022-11-27T14:05:10.496Z,12.37
2022-11-27T14:07:41.576Z,15.00
2022-11-27T14:10:16.017Z,13.23
2022-11-27T14:12:52.779Z,13.90
2022-11-27T14:15:24.960Z,14.03
2022-11-27T14:17:55.446Z,13.30
2022-11-27T14:20:29.811Z,13.47
2022-11-27T14:23:11.653Z,15.63
2022-11-27T14:25:42.634Z,15.13
2022-11-27T14:28:17.900Z,14.10
2022-11-27T14:30:49.701Z,15.30
2022-11-27T14:33:20.329Z,14.73
2022-11-27T14:35:52.333Z,16.83
2022-11-27T14:38:20.323Z,13.00
2022-11-27T14:40:51.679Z,13.50
2022-11-27T14:43:24.020Z,13.10
2022-11-27T14:45:54.616Z,14.73
2022-11-27T14:48:24.960Z,13.70
2022-11-27T14:50:54.520Z,16.10
2022-11-27T14:53:24.816Z,13.93
2022-11-27T14:55:57.623Z,18.60
2022-11-27T14:58:28.141Z,11.30
2022-11-27T15:00:59.588Z,16.63
2022-11-27T15:03:28.273Z,13.77
2022-11-27T15:05:59.695Z,14.70
2022-11-27T15:08:28.638Z,13.73
2022-11-27T15:10:59.540Z,14.90
2022-11-27T15:13:30.451Z,15.27
2022-11-27T15:16:05.092Z,15.03
2022-11-27T15:18:36.297Z,15.43
2022-11-27T15:21:11.446Z,13.50
2022-11-27T15:23:44.954Z,14.17
2022-11-27T15:26:20.006Z,15.10
2022-11-27T15:28:53.250Z,14.43
2022-11-27T15:31:27.681Z,13.23
2022-11-27T15:33:57.508Z,14.00
2022-11-27T15:36:25.858Z,12.57
2022-11-27T15:38:53.951Z,15.60
2022-11-27T15:41:25.753Z,12.80
2022-11-27T15:43:54.256Z,14.17
2022-11-27T15:46:26.204Z,15.37
2022-11-27T15:48:54.507Z,14.73
2022-11-27T15:51:22.327Z,14.53
2022-11-27T15:53:50.748Z,14.87
2022-11-27T15:56:19.532Z,14.60
2022-11-27T15:58:49.029Z,13.27
2022-11-27T16:01:17.240Z,13.90
2022-11-27T16:03:45.211Z,13.07
2022-11-27T16:06:13.015Z,13.33
2022-11-27T16:08:41.002Z,16.10
2022-11-27T16:11:13.567Z,14.57
2022-11-27T16:13:41.729Z,14.03
2022-11-27T16:16:11.462Z,15.83
2022-11-27T16:18:39.383Z,15.40
2022-11-27T16:21:08.947Z,13.87
2022-11-27T16:23:37.353Z,13.30
2022-11-27T16:26:05.857Z,13.50
2022-11-27T16:28:33.893Z,14.70
2022-11-27T16:31:03.827Z,13.97
2022-11-27T16:33:33.658Z,12.93
2022-11-27T16:36:06.662Z,14.00
2022-11-27T16:38:34.776Z,14.07
2022-11-27T16:41:03.927Z,14.37
2022-11-27T16:43:36.267Z,14.60
2022-11-27T16:46:06.814Z,14.30
2022-11-27T16:48:37.371Z,14.10
2022-11-27T16:51:06.107Z,14.40
2022-11-27T16:53:34.258Z,15.13
2022-11-27T16:56:02.513Z,12.93
2022-11-27T16:58:33.994Z,15.93
2022-11-27T17:01:01.901Z,14.67
2022-11-27T17:03:29.923Z,14.23
2022-11-27T17:05:59.214Z,13.67
2022-11-27T17:08:27.224Z,16.77
2022-11-27T17:10:55.370Z,14.40
2022-11-27T17:13:24.753Z,12.93
2022-11-27T17:15:52.785Z,14.87
2022-11-27T17:18:20.657Z,13.53
2022-11-27T17:20:48.483Z,13.20
2022-11-27T17:23:17.833Z,15.27
2022-11-27T17:25:45.705Z,15.60
2022-11-27T17:28:13.517Z,14.33
2022-11-27T17:30:41.532Z,16.23
2022-11-27T17:33:09.435Z,15.13
2022-11-27T17:35:37.288Z,16.60
2022-11-27T17:38:05.340Z,16.70
2022-11-27T17:40:34.669Z,15.20
2022-11-27T17:43:02.468Z,18.30
2022-11-27T17:45:30.935Z,17.63
2022-11-27T17:48:00.246Z,15.53
2022-11-27T17:50:28.156Z,16.10
2022-11-27T17:52:56.183Z,16.37
2022-11-27T17:55:24.069Z,19.07
2022-11-27T17:57:53.862Z,17.93
2022-11-27T18:00:22.064Z,19.03
2022-11-27T18:02:50.021Z,19.03
2022-11-27T18:05:19.347Z,17.47
2022-11-27T18:07:47.288Z,16.40
2022-11-27T18:10:15.156Z,17.07
2022-11-27T18:12:42.943Z,19.73
2022-11-27T18:15:14.624Z,17.97
2022-11-27T18:17:42.534Z,15.80
2022-11-27T18:20:11.877Z,17.70
2022-11-27T18:22:39.821Z,17.73
2022-11-27T18:25:08.093Z,13.50
2022-11-27T18:27:36.007Z,15.13
2022-11-27T18:30:04.697Z,13.63
2022-11-27T18:32:33.977Z,12.50
2022-11-27T18:35:01.775Z,11.67
2022-11-27T18:37:29.778Z,15.50
2022-11-27T18:39:57.823Z,13.93
2022-11-27T18:42:25.704Z,15.63
2022-11-27T18:44:53.858Z,16.40
2022-11-27T18:47:21.995Z,15.13
2022-11-27T18:49:51.982Z,16.47
2022-11-27T18:52:19.888Z,17.10
2022-11-27T18:54:48.085Z,15.53
2022-11-27T18:57:16.144Z,18.00
2022-11-27T18:59:44.852Z,17.90
2022-11-27T19:02:14.519Z,16.30
2022-11-27T19:04:44.340Z,16.27
2022-11-27T19:07:14.756Z,15.83
2022-11-27T19:09:42.997Z,18.73
2022-11-27T19:12:12.274Z,17.57
2022-11-27T19:14:40.854Z,15.93
2022-11-27T19:17:11.997Z,17.57
2022-11-27T19:19:55.705Z,16.30
2022-11-27T19:22:25.264Z,16.37
2022-11-27T19:24:53.115Z,19.03
2022-11-27T19:27:28.848Z,20.07
2022-11-27T19:29:59.784Z,18.20
2022-11-27T19:32:27.723Z,18.70
2022-11-27T19:34:55.632Z,17.93
2022-11-27T19:37:33.997Z,17.97
2022-11-27T19:40:05.769Z,20.50
2022-11-27T19:42:36.315Z,19.03
2022-11-27T19:45:07.909Z,17.47
2022-11-27T19:47:37.824Z,17.83
2022-11-27T19:50:09.843Z,17.40
2022-11-27T19:52:39.671Z,18.07
2022-11-27T19:55:08.055Z,19.73
2022-11-27T19:57:37.478Z,21.30
2022-11-27T20:00:06.826Z,21.03
2022-11-27T20:02:36.056Z,18.00
2022-11-27T20:05:04.588Z,19.63
2022-11-27T20:07:33.206Z,20.47
2022-11-27T20:10:02.691Z,18.63
2022-11-27T20:12:37.036Z,19.60
2022-11-27T20:15:09.116Z,20.90
2022-11-27T20:17:37.203Z,19.83
2022-11-27T20:20:05.817Z,18.63
2022-11-27T20:22:33.779Z,19.70
2022-11-27T20:25:18.932Z,22.87
2022-11-27T20:27:48.093Z,21.07
2022-11-27T20:30:16.285Z,23.17
2022-11-27T20:32:47.385Z,20.43
2022-11-27T20:35:18.213Z,21.37
2022-11-27T20:37:46.045Z,19.40
2022-11-27T20:40:15.488Z,26.00
2022-11-27T20:42:43.448Z,21.13
2022-11-27T20:45:16.198Z,20.00
2022-11-27T20:47:54.556Z,22.30
2022-11-27T20:50:22.463Z,22.37
2022-11-27T20:52:53.972Z,20.83
2022-11-27T20:55:23.307Z,24.57
2022-11-27T20:57:56.929Z,20.43
2022-11-27T21:00:25.433Z,20.33
2022-11-27T21:02:53.211Z,21.47
2022-11-27T21:05:21.242Z,23.37
2022-11-27T21:07:51.674Z,21.80
2022-11-27T21:10:25.635Z,21.13
2022-11-27T21:12:58.182Z,20.20
2022-11-27T21:15:31.121Z,19.70
2022-11-27T21:17:59.004Z,20.03
2022-11-27T21:20:26.861Z,20.30
2022-11-27T21:22:54.673Z,19.77
2022-11-27T21:25:25.448Z,18.57
2022-11-27T21:27:55.932Z,18.47
2022-11-27T21:30:25.422Z,17.97
2022-11-27T21:32:56.227Z,18.27
2022-11-27T21:35:31.571Z,17.93
2022-11-27T21:38:01.792Z,20.00
2022-11-27T21:40:37.048Z,21.03
2022-11-27T21:43:09.244Z,17.13
2022-11-27T21:45:52.649Z,21.80
2022-11-27T21:48:25.518Z,17.87
2022-11-27T21:51:03.898Z,18.33
2022-11-27T21:53:32.969Z,16.37
2022-11-27T21:56:04.875Z,16.53
2022-11-27T21:58:34.293Z,15.77
2022-11-27T22:01:04.655Z,15.70
2022-11-27T22:03:33.074Z,13.73
2022-11-27T22:06:02.691Z,15.27
2022-11-27T22:08:31.041Z,14.23
2022-11-27T22:10:59.129Z,13.87
2022-11-27T22:13:28.286Z,15.93
2022-11-27T22:15:56.113Z,15.77
2022-11-27T22:18:25.452Z,17.43
2022-11-27T22:20:53.513Z,15.77
2022-11-27T22:23:21.418Z,15.07
2022-11-27T22:25:49.564Z,13.50
2022-11-27T22:28:17.359Z,15.83
2022-11-27T22:30:45.239Z,16.67
2022-11-27T22:33:13.363Z,13.93
2022-11-27T22:35:42.528Z,14.07
2022-11-27T22:38:10.322Z,14.03
2022-11-27T22:40:38.381Z,11.60
2022-11-27T22:43:06.172Z,13.97
2022-11-27T22:45:34.296Z,11.90
2022-11-27T22:48:02.301Z,13.97
2022-11-27T22:50:30.105Z,15.27
2022-11-27T22:52:59.274Z,13.43
2022-11-27T22:55:27.856Z,13.00
2022-11-27T22:57:55.666Z,13.87
2022-11-27T23:00:24.077Z,12.43
2022-11-27T23:02:52.525Z,13.57
2022-11-27T23:05:20.373Z,12.83
2022-11-27T23:07:48.233Z,13.03
2022-11-27T23:10:18.991Z,12.63
2022-11-27T23:12:46.792Z,12.18
2022-11-27T23:15:14.645Z,12.38
2022-11-27T23:17:42.800Z,11.47
2022-11-27T23:20:11.404Z,12.88
2022-11-27T23:22:39.202Z,13.02
2022-11-27T23:25:08.099Z,10.73
2022-11-27T23:27:37.292Z,12.23
2022-11-27T23:30:05.900Z,10.60
2022-11-27T23:32:34.610Z,10.60
2022-11-27T23:35:02.457Z,10.10
2022-11-27T23:37:30.263Z,12.77
2022-11-27T23:39:58.375Z,9.52
2022-11-27T23:42:26.195Z,9.47
2022-11-27T23:44:55.365Z,10.07
2022-11-27T23:47:23.440Z,9.87
2022-11-27T23:49:51.261Z,9.55
2022-11-27T23:52:19.077Z,10.43
2022-11-27T23:54:47.244Z,9.38
2022-11-27T23:57:15.188Z,9.47
2022-11-27T23:59:42.979Z,9.88
